Le Ponant — FGZZ — position and weather

sailwx.info

Track history (hours):
 
Tides and Currents Weather Stations Pressure Air Temp Water Temp Dewpoint Dewpoint Depression Visibility Wind Speed Wind Dir Waves Ship Positions

Le Ponant

Operator: Compangy des Iles du Ponant

Last reported at 2019-Apr-25 12:39 UTC. Time now 2019-Apr-26 04:11 UTC.
Position N 29°02' W 013°22'.

Length 84 m; draft 4.2 m.

Type: Passenger vessel. MMSI: 227186000.

Date/timePositionNaut miles runAvg speedWind from/ knotsBaromVisibWave heightAir tempDewpointWater temp
2019-Apr-25 12:39N 29°02' W 013°22'2 9.8
2019-Apr-25 12:27N 29°01' W 013°24'4 9.7
2019-Apr-25 12:00N 28°59' W 013°28'4 7.6
2019-Apr-25 11:30N 28°57' W 013°32'1 0.4
2019-Apr-25 10:00N 28°58' W 013°32'0 0.0
2019-Apr-25 09:24N 28°58' W 013°32'0 0.0
2019-Apr-25 08:58N 28°58' W 013°32'0 0.0
2019-Apr-25 08:26N 28°58' W 013°32'0 0.0
2019-Apr-25 07:05N 28°58' W 013°32'0 0.0
2019-Apr-25 06:30N 28°58' W 013°32'1 1.7
2019-Apr-25 06:00N 28°57' W 013°32'4 6.5
2019-Apr-25 05:27N 28°54' W 013°35'2 4.4
2019-Apr-25 05:00N 28°53' W 013°36'5 7.5
2019-Apr-25 04:24N 28°54' W 013°31'1 2.9
2019-Apr-25 03:56N 28°54' W 013°33'4 8.2
2019-Apr-25 03:30N 28°52' W 013°37'3 6.8
2019-Apr-25 02:59N 28°50' W 013°40'13010.2
2019-Apr-24 14:18N 28°30' W 016°06'3 9.5
2019-Apr-24 14:00N 28°30' W 016°09'4 7.0
2019-Apr-24 13:28N 28°29' W 016°13'1 2.5
2019-Apr-24 12:59N 28°28' W 016°15'0 0.0
2019-Apr-24 12:29N 28°28' W 016°15'0 0.0
2019-Apr-24 11:59N 28°28' W 016°15'0 0.0
2019-Apr-24 11:29N 28°28' W 016°15'0 0.0
2019-Apr-24 11:00N 28°28' W 016°15'0 0.0
2019-Apr-24 10:30N 28°28' W 016°15'0 0.0
2019-Apr-24 09:59N 28°28' W 016°15'0 0.0
2019-Apr-24 09:30N 28°28' W 016°15'0 0.0
2019-Apr-24 08:58N 28°28' W 016°15'0 0.0
2019-Apr-24 08:28N 28°28' W 016°15'0 0.0
2019-Apr-24 07:58N 28°28' W 016°15'0 0.0
2019-Apr-24 07:28N 28°28' W 016°15'0 0.0
2019-Apr-24 07:01N 28°28' W 016°15'1 2.6
2019-Apr-24 06:30N 28°28' W 016°13'3 6.6
2019-Apr-24 06:01N 28°24' W 016°12'3 5.9
2019-Apr-24 05:30N 28°26' W 016°10'2 4.5
2019-Apr-24 05:00N 28°28' W 016°08'4 7.1
2019-Apr-24 04:31N 28°25' W 016°11'3 7.0
2019-Apr-24 04:01N 28°24' W 016°07'4 7.0
2019-Apr-24 03:31N 28°23' W 016°03'4 7.1
2019-Apr-24 03:00N 28°20' W 016°01'  
Track history (hours):
 
Tides and Currents Weather Stations Pressure Air Temp Water Temp Dewpoint Dewpoint Depression Visibility Wind Speed Wind Dir Waves Ship Positions

Le Ponant

Operator: Compangy des Iles du Ponant

Last reported at 2019-Apr-25 12:39 UTC. Time now 2019-Apr-26 04:11 UTC.
Position N 29°02' W 013°22'.

Length 84 m; draft 4.2 m.

Type: Passenger vessel. MMSI: 227186000.

Date/timePositionNaut miles runAvg speedWind from/ knotsBaromVisibWave heightAir tempDewpointWater temp
2019-Apr-25 12:39N 29°02' W 013°22'2 9.8
2019-Apr-25 12:27N 29°01' W 013°24'4 9.7
2019-Apr-25 12:00N 28°59' W 013°28'4 7.6
2019-Apr-25 11:30N 28°57' W 013°32'1 0.4
2019-Apr-25 10:00N 28°58' W 013°32'0 0.0
2019-Apr-25 09:24N 28°58' W 013°32'0 0.0
2019-Apr-25 08:58N 28°58' W 013°32'0 0.0
2019-Apr-25 08:26N 28°58' W 013°32'0 0.0
2019-Apr-25 07:05N 28°58' W 013°32'0 0.0
2019-Apr-25 06:30N 28°58' W 013°32'1 1.7
2019-Apr-25 06:00N 28°57' W 013°32'4 6.5
2019-Apr-25 05:27N 28°54' W 013°35'2 4.4
2019-Apr-25 05:00N 28°53' W 013°36'5 7.5
2019-Apr-25 04:24N 28°54' W 013°31'1 2.9
2019-Apr-25 03:56N 28°54' W 013°33'4 8.2
2019-Apr-25 03:30N 28°52' W 013°37'3 6.8
2019-Apr-25 02:59N 28°50' W 013°40'13010.2
2019-Apr-24 14:18N 28°30' W 016°06'3 9.5
2019-Apr-24 14:00N 28°30' W 016°09'4 7.0
2019-Apr-24 13:28N 28°29' W 016°13'1 2.5
2019-Apr-24 12:59N 28°28' W 016°15'0 0.0
2019-Apr-24 12:29N 28°28' W 016°15'0 0.0
2019-Apr-24 11:59N 28°28' W 016°15'0 0.0
2019-Apr-24 11:29N 28°28' W 016°15'0 0.0
2019-Apr-24 11:00N 28°28' W 016°15'0 0.0
2019-Apr-24 10:30N 28°28' W 016°15'0 0.0
2019-Apr-24 09:59N 28°28' W 016°15'0 0.0
2019-Apr-24 09:30N 28°28' W 016°15'0 0.0
2019-Apr-24 08:58N 28°28' W 016°15'0 0.0
2019-Apr-24 08:28N 28°28' W 016°15'0 0.0
2019-Apr-24 07:58N 28°28' W 016°15'0 0.0
2019-Apr-24 07:28N 28°28' W 016°15'0 0.0
2019-Apr-24 07:01N 28°28' W 016°15'1 2.6
2019-Apr-24 06:30N 28°28' W 016°13'3 6.6
2019-Apr-24 06:01N 28°24' W 016°12'3 5.9
2019-Apr-24 05:30N 28°26' W 016°10'2 4.5
2019-Apr-24 05:00N 28°28' W 016°08'4 7.1
2019-Apr-24 04:31N 28°25' W 016°11'3 7.0
2019-Apr-24 04:01N 28°24' W 016°07'4 7.0
2019-Apr-24 03:31N 28°23' W 016°03'4 7.1
2019-Apr-24 03:00N 28°20' W 016°01'  

Dump ship's entire track history